Flight Track Log - Related Links

Times and Time Zones

All times are in EDT time to prevent confusion due to time zone crossing. See the IBE488 flight status page for this flight to view local times or setup timezone preferences in your user account.

Time Position Orientation Groundspeed Altitude Reporting Facility
EDT Latitude Longitude Course Direction KTS MPH feet Rate Location/Type
Fri 06:23:00 AM 41.5215 -4.3622 330° Northwest  Level Estimated
Fri 06:24:00 AM 41.6069 -4.4296 329° Northwest  Level Estimated
Fri 06:25:00 AM 41.6923 -4.4972 329° Northwest  Level Estimated
Fri 06:26:00 AM 41.7776 -4.5650 329° Northwest  Level Estimated
Fri 06:27:00 AM 41.8629 -4.6330 329° Northwest  Level Estimated
Fri 06:28:00 AM 41.9481 -4.7011 329° Northwest  Level Estimated
Fri 06:29:00 AM 42.0334 -4.7694 329° Northwest  Level Estimated
Fri 06:30:00 AM 42.1185 -4.8379 329° Northwest  Level Estimated
Fri 06:31:00 AM 42.2037 -4.9066 329° Northwest  Level Estimated
Fri 06:32:00 AM 42.2887 -4.9755 329° Northwest  Level Estimated
Fri 06:33:00 AM 42.3738 -5.0446 329° Northwest  Level Estimated
Fri 06:34:00 AM 42.4588 -5.1138 329° Northwest  Level Estimated
Fri 06:35:00 AM 42.5438 -5.1833 329° Northwest  Level Estimated
Fri 06:36:00 AM 42.6287 -5.2529 329° Northwest  Level Estimated
Fri 06:37:00 AM 42.7136 -5.3227 329° Northwest  Level Estimated
Fri 06:38:00 AM 42.7984 -5.3927 329° Northwest  Level Estimated
Fri 06:39:00 AM 42.8832 -5.4629 329° Northwest  Level Estimated
Fri 06:40:00 AM 42.9679 -5.5333 329° Northwest  Level Estimated
Fri 06:41:00 AM 43.0527 -5.6039 329° Northwest  Level Estimated
Fri 06:42:00 AM 43.1373 -5.6747 329° Northwest  Level Estimated
Fri 06:43:00 AM 43.2219 -5.7457 329° Northwest  Level Estimated
Fri 06:44:00 AM 43.3065 -5.8168 329° Northwest  Level Estimated
Fri 06:45:00 AM 43.3910 -5.8882 328° Northwest  Level Estimated
Fri 06:46:00 AM 43.4755 -5.9598 328° Northwest  Level Estimated
Fri 06:47:00 AM 43.5600 -6.0316 328° Northwest  Level Estimated
Fri 06:48:00 AM 43.5636 -6.0346 328° Northwest  Level Estimated
Fri 06:49:00 AM 43.5636 -6.0346 206° Southwest  Level Estimated
Fri 06:50:00 AM 43.5636 -6.0346 206° Southwest  Level Estimated
Fri 06:51:00 AM 43.5636 -6.0346 206° Southwest  Level Estimated
Fri 06:52:00 AM 43.5636 -6.0346 206° Southwest  Level Estimated
Fri 06:53:00 AM 43.5636 -6.0346 206° Southwest  Level Estimated
Fri 06:54:00 AM 43.5636 -6.0346 206° Southwest  Level Estimated
Fri 06:55:00 AM 43.5636 -6.0346 206° Southwest  Level Estimated
Fri 06:56:00 AM 43.5636 -6.0346 206° Southwest  Level Estimated
Fri 06:57:00 AM 43.5636 -6.0346 206° Southwest  Level Estimated
Fri 06:58:00 AM 43.5636 -6.0346 206° Southwest  Level Estimated
Fri 06:59:00 AM 43.5636 -6.0346 206° Southwest  Level Estimated
Fri 07:00:00 AM 43.5636 -6.0346 206° Southwest  Level Estimated
Fri 07:01:00 AM 43.5636 -6.0346 206° Southwest  Level Estimated
Fri 07:02:00 AM 43.5636 -6.0346 206° Southwest  Level Estimated
Fri 07:03:00 AM 43.5636 -6.0346 206° Southwest  Level Estimated

Login

Don't have an account? Register now (free) for customized features, flight alerts, and more!